Time;durP1;ratioP1;P1;durP2;ratioP2;P2;SDS_P1;SDS_P2;PMS_P1;PMS_P2;Temp;Humidity;BMP_temperature;BMP_pressure;BME280_temperature;BME280_humidity;BME280_pressure;Samples;Min_cycle;Max_cycle;Signal;HPM_P1;HPM_P2
2023/04/10 04:30:43;;;;;;;;;12.00;12.00;;;;;14.38;48.26;101342.53;5061066;27;45584;-77
2023/04/10 04:33:09;;;;;;;;;10.00;10.00;;;;;14.20;47.86;101311.16;5084491;27;45412;-76
2023/04/10 04:35:34;;;;;;;;;9.25;9.25;;;;;14.27;48.65;101335.03;5096981;27;50730;-77
2023/04/10 04:37:59;;;;;;;;;9.50;9.25;;;;;14.22;48.72;101328.09;5097419;27;45467;-79
2023/04/10 04:40:25;;;;;;;;;9.25;8.00;;;;;14.21;48.72;101335.31;5097626;27;45405;-76
2023/04/10 04:42:50;;;;;;;;;12.75;12.75;;;;;14.00;48.44;101301.38;5100788;27;45618;-77
2023/04/10 04:45:15;;;;;;;;;12.25;11.25;;;;;14.23;48.51;101344.22;5099537;27;45480;-76
2023/04/10 04:47:41;;;;;;;;;11.75;11.75;;;;;13.92;48.75;101296.41;5098510;27;53681;-77
2023/04/10 04:50:07;;;;;;;;;13.50;13.50;;;;;14.23;48.92;101346.91;5079165;27;56679;-78
2023/04/10 04:52:34;;;;;;;;;19.25;15.25;;;;;14.18;49.00;101345.41;5076994;27;45311;-78
2023/04/10 04:54:59;;;;;;;;;13.00;13.00;;;;;14.08;49.41;101347.69;5077031;28;45550;-77
2023/04/10 04:57:25;;;;;;;;;10.25;10.25;;;;;13.97;49.24;101336.59;5076557;28;46007;-77
2023/04/10 04:59:50;;;;;;;;;12.25;11.25;;;;;13.99;49.12;101340.09;5076344;28;45421;-78
2023/04/10 05:02:17;;;;;;;;;13.75;12.75;;;;;14.02;49.60;101346.19;5077295;28;45402;-78
2023/04/10 05:04:43;;;;;;;;;12.00;12.00;;;;;14.11;49.24;101352.06;5076492;27;45489;-79
2023/04/10 05:07:08;;;;;;;;;13.25;13.25;;;;;14.09;49.39;101349.44;5076535;28;45404;-77
2023/04/10 05:09:34;;;;;;;;;13.75;13.75;;;;;14.10;49.21;101358.41;5077224;28;45398;-76
2023/04/10 05:11:59;;;;;;;;;14.00;12.25;;;;;14.00;49.47;101329.22;5076859;28;45356;-78
2023/04/10 05:14:24;;;;;;;;;13.50;13.50;;;;;13.96;49.10;101319.53;5076393;28;46939;-77
2023/04/10 05:16:50;;;;;;;;;12.50;12.50;;;;;14.14;49.79;101354.59;5075697;28;45629;-78
2023/04/10 05:19:15;;;;;;;;;12.50;12.50;;;;;14.12;49.38;101351.97;5075784;27;45306;-76
2023/04/10 05:21:41;;;;;;;;;14.00;13.50;;;;;13.77;49.61;101296.31;5076372;27;45550;-78
2023/04/10 05:24:06;;;;;;;;;14.00;14.00;;;;;14.15;49.60;101348.25;5096321;27;45293;-78
2023/04/10 05:26:32;;;;;;;;;10.00;10.00;;;;;13.99;49.53;101337.38;5077576;27;46067;-77
2023/04/10 05:28:57;;;;;;;;;11.25;11.25;;;;;14.05;49.53;101352.38;5095999;27;45254;-77
2023/04/10 05:31:22;;;;;;;;;11.25;10.00;;;;;13.84;49.84;101325.56;5071892;28;45387;-78
2023/04/10 05:33:48;;;;;;;;;10.25;10.25;;;;;13.90;49.60;101335.16;5087851;27;45620;-77
2023/04/10 05:36:13;;;;;;;;;11.50;11.50;;;;;13.94;49.94;101361.00;5095867;27;46222;-76
2023/04/10 05:38:38;;;;;;;;;14.75;12.75;;;;;13.91;49.68;101362.03;5096509;27;45231;-79
2023/04/10 05:41:04;;;;;;;;;11.50;11.50;;;;;13.99;49.50;101367.03;5097625;27;45416;-77
2023/04/10 05:43:29;;;;;;;;;12.75;10.75;;;;;14.03;49.83;101369.50;5095854;27;45209;-78
2023/04/10 05:45:54;;;;;;;;;13.25;13.25;;;;;14.03;49.80;101361.41;5096271;27;45894;-78
2023/04/10 05:48:20;;;;;;;;;11.00;11.00;;;;;14.05;49.87;101355.06;5097042;27;45305;-77
2023/04/10 05:50:46;;;;;;;;;12.00;10.50;;;;;13.96;50.04;101327.63;5066858;27;45452;-78
2023/04/10 05:53:13;;;;;;;;;10.75;10.00;;;;;14.12;50.08;101345.75;5089259;27;45430;-76
2023/04/10 05:55:38;;;;;;;;;10.75;10.75;;;;;13.95;49.84;101320.47;5077687;27;45638;-77
2023/04/10 05:58:04;;;;;;;;;17.25;12.50;;;;;14.14;49.96;101349.19;5075015;28;45387;-77
2023/04/10 06:00:29;;;;;;;;;12.00;9.75;;;;;14.19;50.21;101353.44;5075438;28;45351;-77
2023/04/10 06:02:54;;;;;;;;;15.75;14.25;;;;;14.13;50.09;101342.06;5075069;28;45331;-78
2023/04/10 06:05:20;;;;;;;;;11.25;11.00;;;;;14.11;50.21;101333.19;5075925;27;46176;-77
2023/04/10 06:07:45;;;;;;;;;12.25;12.25;;;;;14.26;50.10;101354.84;5083341;27;45472;-77
2023/04/10 06:10:11;;;;;;;;;13.00;11.00;;;;;14.01;50.38;101301.31;5075713;27;45450;-78
2023/04/10 06:12:36;;;;;;;;;8.00;6.25;;;;;14.36;50.15;101357.97;5076962;27;45306;-76
2023/04/10 06:15:02;;;;;;;;;11.00;10.00;;;;;14.20;50.45;101314.72;5095264;27;45381;-78
2023/04/10 06:17:27;;;;;;;;;12.00;9.50;;;;;14.32;49.86;101326.69;5093452;27;45403;-78
2023/04/10 06:19:53;;;;;;;;;12.00;9.25;;;;;14.49;50.26;101356.38;5095033;27;45413;-77
2023/04/10 06:22:18;;;;;;;;;13.00;11.50;;;;;14.60;50.24;101361.22;5095504;27;45412;-77
2023/04/10 06:24:43;;;;;;;;;12.50;11.50;;;;;14.64;49.76;101365.50;5095494;27;45360;-79
2023/04/10 06:27:09;;;;;;;;;10.25;10.25;;;;;14.68;49.32;101373.38;5096067;27;45315;-77
2023/04/10 06:29:34;;;;;;;;;14.75;11.75;;;;;14.54;49.48;101354.34;5095389;27;45456;-78
2023/04/10 06:32:00;;;;;;;;;10.00;9.75;;;;;14.69;49.10;101356.22;5084017;27;45303;-79
2023/04/10 06:34:26;;;;;;;;;12.00;12.00;;;;;14.66;49.38;101361.78;5075182;27;45880;-76
2023/04/10 06:36:51;;;;;;;;;9.00;9.00;;;;;14.68;49.09;101373.38;5074903;28;45201;-74
2023/04/10 06:39:16;;;;;;;;;9.50;9.50;;;;;14.73;49.32;101371.28;5083701;27;45444;-74
2023/04/10 06:41:42;;;;;;;;;11.00;11.00;;;;;14.64;49.11;101368.19;5094236;27;45414;-77
2023/04/10 06:44:07;;;;;;;;;11.00;11.00;;;;;14.72;49.40;101372.22;5094996;27;46267;-75
2023/04/10 06:46:32;;;;;;;;;15.25;13.00;;;;;14.77;49.51;101372.88;5076844;27;45461;-77
2023/04/10 06:48:58;;;;;;;;;14.00;12.50;;;;;14.69;49.59;101355.34;5076694;27;45330;-78
2023/04/10 06:51:23;;;;;;;;;11.25;11.25;;;;;14.85;49.01;101358.09;5082819;27;45319;-75
2023/04/10 06:53:49;;;;;;;;;12.00;12.00;;;;;14.84;49.25;101349.13;5074476;28;46511;-75
2023/04/10 06:56:14;;;;;;;;;11.00;11.00;;;;;14.73;48.66;101329.91;5074361;28;45390;-73
2023/04/10 06:58:40;;;;;;;;;15.25;14.50;;;;;14.81;48.99;101351.97;5075621;28;45254;-75
2023/04/10 07:01:05;;;;;;;;;16.75;11.00;;;;;14.76;49.11;101354.06;5075477;28;45396;-71
2023/04/10 07:03:31;;;;;;;;;9.00;7.25;;;;;14.77;49.46;101356.69;5074237;28;46146;-73
2023/04/10 07:05:58;;;;;;;;;11.75;11.75;;;;;14.55;49.17;101312.88;5074985;28;45375;-79
2023/04/10 07:08:23;;;;;;;;;14.25;13.25;;;;;14.84;49.47;101346.41;5075835;28;45346;-77
2023/04/10 07:10:49;;;;;;;;;13.50;13.50;;;;;14.85;49.14;101331.09;5076344;28;45303;-77
2023/04/10 07:13:14;;;;;;;;;11.25;11.25;;;;;15.02;49.46;101344.56;5075866;28;45693;-76
2023/04/10 07:15:39;;;;;;;;;11.50;11.50;;;;;14.99;48.75;101333.91;5074944;28;45323;-74
2023/04/10 07:18:05;;;;;;;;;15.75;13.25;;;;;15.03;48.94;101333.66;5075293;28;45478;-77
2023/04/10 07:20:31;;;;;;;;;13.25;13.25;;;;;15.02;48.99;101328.34;5075101;28;45249;-73
2023/04/10 07:22:56;;;;;;;;;13.00;12.00;;;;;15.13;48.99;101340.31;5073687;28;45330;-73
2023/04/10 07:25:22;;;;;;;;;13.25;11.25;;;;;15.15;48.73;101332.09;5074263;28;45210;-73
2023/04/10 07:27:47;;;;;;;;;10.00;10.00;;;;;15.17;48.70;101313.13;5075570;27;45361;-72
2023/04/10 07:30:12;;;;;;;;;11.25;11.25;;;;;15.19;48.27;101306.69;5092189;27;45425;-76
2023/04/10 07:32:39;;;;;;;;;13.25;13.00;;;;;15.20;48.55;101311.13;5093651;27;46416;-75
2023/04/10 07:35:06;;;;;;;;;15.00;15.00;;;;;15.21;48.67;101301.19;5074610;27;45463;-71
2023/04/10 07:37:31;;;;;;;;;12.75;12.75;;;;;15.21;48.56;101299.38;5094071;27;45414;-73
2023/04/10 07:39:56;;;;;;;;;10.00;10.00;;;;;15.27;48.05;101303.53;5092052;27;45486;-71
2023/04/10 07:42:22;;;;;;;;;11.25;11.25;;;;;15.28;48.35;101308.88;5072760;27;51575;-71
2023/04/10 07:44:47;;;;;;;;;11.75;11.75;;;;;15.25;48.11;101317.13;5071178;27;45772;-72
2023/04/10 07:47:13;;;;;;;;;11.75;10.25;;;;;15.29;48.30;101316.00;5094018;27;45704;-71
2023/04/10 07:49:38;;;;;;;;;13.00;13.00;;;;;15.34;48.58;101319.31;5094701;27;45590;-76
2023/04/10 07:52:03;;;;;;;;;14.25;13.25;;;;;15.39;48.28;101316.38;5093955;27;46142;-74
2023/04/10 07:54:33;;;;;;;;;13.00;12.25;;;;;15.36;48.18;101311.13;5096859;27;45176;-77
2023/04/10 07:56:58;;;;;;;;;15.00;11.00;;;;;15.35;48.22;101307.56;5097544;27;45390;-74
2023/04/10 07:59:23;;;;;;;;;13.75;13.75;;;;;15.48;48.21;101307.75;5079486;27;47311;-73
2023/04/10 08:01:49;;;;;;;;;11.25;11.25;;;;;15.52;47.77;101301.19;5097418;27;48344;-73
2023/04/10 08:04:14;;;;;;;;;11.25;11.25;;;;;15.60;48.02;101301.66;5079329;27;45384;-72
2023/04/10 08:06:40;;;;;;;;;11.00;10.00;;;;;15.68;48.24;101307.47;5097386;27;45746;-73
2023/04/10 08:09:05;;;;;;;;;11.00;11.00;;;;;15.78;47.74;101299.72;5097736;27;45369;-72
2023/04/10 08:11:35;;;;;;;;;13.00;10.25;;;;;15.91;47.04;101314.22;5078644;27;48388;-73
2023/04/10 08:14:02;;;;;;;;;9.00;9.00;;;;;15.95;46.96;101321.22;5097528;27;45307;-74
2023/04/10 08:16:29;;;;;;;;;11.00;11.00;;;;;15.96;47.04;101316.69;5078940;27;45288;-72
2023/04/10 08:18:56;;;;;;;;;10.00;9.75;;;;;15.98;46.88;101312.06;5097449;27;45335;-72
2023/04/10 08:21:23;;;;;;;;;12.25;11.25;;;;;15.91;46.96;101303.41;5083825;27;46215;-72
2023/04/10 08:23:56;;;;;;;;;9.75;9.50;;;;;16.00;46.39;101313.69;5102681;27;45526;-72
2023/04/10 08:26:24;;;;;;;;;10.25;10.25;;;;;16.06;47.07;101307.06;5099586;27;45309;-73
2023/04/10 08:28:51;;;;;;;;;9.75;9.75;;;;;16.13;46.92;101303.91;5100483;27;45275;-72
2023/04/10 08:31:21;;;;;;;;;12.75;11.25;;;;;16.21;46.66;101307.00;5093050;27;45468;-74
2023/04/10 08:33:47;;;;;;;;;11.75;10.50;;;;;16.23;46.46;101293.41;5071650;27;45400;-73
2023/04/10 08:36:17;;;;;;;;;8.50;8.50;;;;;16.38;46.67;101313.22;5097215;27;45554;-73
2023/04/10 08:38:43;;;;;;;;;9.75;9.50;;;;;16.44;46.01;101320.97;5078664;27;47248;-76
2023/04/10 08:41:13;;;;;;;;;10.75;10.75;;;;;16.42;46.03;101325.59;5096441;27;46603;-76
2023/04/10 08:43:38;;;;;;;;;10.75;9.25;;;;;16.38;46.21;101318.66;5096829;27;45534;-74
2023/04/10 08:46:04;;;;;;;;;10.00;9.00;;;;;16.30;46.41;101308.28;5097367;27;45255;-75
2023/04/10 08:49:03;;;;;;;;;11.25;10.00;;;;;16.42;46.60;101318.34;5096993;27;45217;-74
2023/04/10 08:51:37;;;;;;;;;8.75;7.50;;;;;16.27;46.95;101268.75;5070285;27;46315;-77
2023/04/10 08:54:13;;;;;;;;;8.50;8.50;;;;;16.57;46.94;101316.56;5076850;27;45504;-74
2023/04/10 08:56:41;;;;;;;;;12.00;10.25;;;;;16.61;46.98;101307.31;5096702;27;45477;-73
2023/04/10 08:59:07;;;;;;;;;7.25;7.25;;;;;16.67;47.23;101304.25;5097042;27;45307;-76
2023/04/10 09:01:33;;;;;;;;;10.75;10.75;;;;;16.80;47.35;101309.75;5074611;27;47284;-74
2023/04/10 09:03:59;;;;;;;;;8.25;8.25;;;;;16.51;46.46;101249.25;5096585;27;45275;-74
2023/04/10 09:06:24;;;;;;;;;9.00;9.00;;;;;16.91;47.51;101302.69;5096416;27;45296;-72
2023/04/10 09:08:50;;;;;;;;;10.25;8.75;;;;;16.78;46.08;101274.63;5078243;27;46009;-74
2023/04/10 09:11:15;;;;;;;;;9.25;8.25;;;;;16.90;46.80;101306.38;5097014;27;45358;-73
2023/04/10 09:13:42;;;;;;;;;12.00;10.00;;;;;16.95;46.74;101306.94;5097022;27;45333;-75
2023/04/10 09:16:09;;;;;;;;;8.50;8.50;;;;;16.95;46.77;101297.94;5078431;27;45482;-72
2023/04/10 09:18:41;;;;;;;;;7.00;7.00;;;;;17.08;47.36;101298.03;5096222;27;45314;-71
2023/04/10 09:21:08;;;;;;;;;6.25;6.25;;;;;17.14;46.76;101303.06;5096069;27;45326;-72
2023/04/10 09:23:33;;;;;;;;;7.50;7.50;;;;;17.18;47.01;101293.78;5078009;27;45416;-72
2023/04/10 09:25:59;;;;;;;;;5.00;5.00;;;;;17.06;46.67;101281.00;5095876;27;45393;-72
2023/04/10 09:28:24;;;;;;;;;6.25;6.25;;;;;17.12;46.87;101272.47;5096085;27;45759;-71
2023/04/10 09:30:50;;;;;;;;;5.75;5.50;;;;;17.19;46.63;101271.09;5093873;27;45572;-74
2023/04/10 09:33:26;;;;;;;;;9.00;7.25;;;;;17.26;46.19;101269.75;5069736;28;45398;-73
2023/04/10 09:35:52;;;;;;;;;8.50;8.00;;;;;17.34;46.50;101264.69;5075727;28;45417;-71
2023/04/10 09:38:20;;;;;;;;;7.75;6.50;;;;;17.48;46.20;101263.78;5076852;27;45489;-73
2023/04/10 09:40:47;;;;;;;;;7.25;7.00;;;;;17.56;45.99;101262.28;5095804;27;45304;-80
2023/04/10 09:43:26;;;;;;;;;6.00;6.00;;;;;17.56;45.68;101242.44;5067130;28;45375;-73
2023/04/10 09:45:53;;;;;;;;;11.25;11.00;;;;;17.68;45.75;101252.50;5093649;27;45426;-76
2023/04/10 09:48:20;;;;;;;;;6.25;6.25;;;;;17.71;45.20;101250.44;5095990;27;45232;-75
2023/04/10 09:50:46;;;;;;;;;6.25;6.25;;;;;17.71;45.55;101257.72;5089995;27;45314;-75
2023/04/10 09:53:18;;;;;;;;;7.50;7.25;;;;;17.62;45.99;101233.94;5075199;28;45343;-71
2023/04/10 09:55:44;;;;;;;;;9.00;8.00;;;;;17.70;45.73;101234.28;5075295;27;45354;-72
2023/04/10 09:58:10;;;;;;;;;9.75;8.00;;;;;17.74;44.74;101233.97;5075188;27;45331;-75
2023/04/10 10:00:46;;;;;;;;;6.00;6.00;;;;;17.81;44.79;101249.81;5074860;28;45296;-71
2023/04/10 10:03:14;;;;;;;;;5.00;5.00;;;;;17.75;44.45;101243.00;5077784;27;45402;-70
2023/04/10 10:05:47;;;;;;;;;7.00;7.00;;;;;17.66;43.89;101243.59;5095037;27;45403;-74
2023/04/10 10:08:14;;;;;;;;;7.25;6.00;;;;;17.61;44.34;101251.13;5081586;27;45547;-73
2023/04/10 10:11:01;;;;;;;;;6.25;6.25;;;;;17.55;44.24;101247.00;5068672;28;45412;-76
2023/04/10 10:13:36;;;;;;;;;8.75;7.50;;;;;17.46;44.63;101244.91;5093394;27;45657;-72
2023/04/10 10:16:18;;;;;;;;;7.00;7.00;;;;;17.36;44.74;101233.78;5094819;27;45390;-72
2023/04/10 10:19:04;;;;;;;;;6.25;6.25;;;;;17.46;45.32;101231.34;5084006;27;45567;-73
2023/04/10 10:21:33;;;;;;;;;7.50;7.50;;;;;17.38;45.27;101229.16;5077275;27;45452;-72
2023/04/10 10:24:00;;;;;;;;;9.50;6.50;;;;;17.38;45.33;101237.28;5083443;27;45356;-73
2023/04/10 10:26:28;;;;;;;;;7.50;6.75;;;;;17.36;45.13;101227.50;5074784;28;45454;-75
2023/04/10 10:28:55;;;;;;;;;9.25;7.75;;;;;17.27;44.60;101209.13;5068785;27;46622;-73
2023/04/10 10:31:22;;;;;;;;;7.50;5.50;;;;;17.35;44.41;101218.50;5088741;27;46429;-73
2023/04/10 10:33:51;;;;;;;;;6.50;6.50;;;;;17.28;43.52;101210.88;5074680;28;45438;-80
2023/04/10 10:36:19;;;;;;;;;8.75;6.75;;;;;17.37;42.98;101227.41;5056094;28;45404;-73
2023/04/10 10:38:57;;;;;;;;;7.00;5.50;;;;;17.27;43.74;101212.72;5079120;27;45374;-75
2023/04/10 10:41:37;;;;;;;;;7.00;6.00;;;;;17.35;43.79;101214.94;5095051;27;45498;-74
2023/04/10 10:44:27;;;;;;;;;6.75;5.25;;;;;17.46;44.33;101217.78;5076622;27;45326;-73
2023/04/10 10:47:18;;;;;;;;;7.50;7.25;;;;;17.53;44.42;101212.81;5095394;27;45391;-74
2023/04/10 10:50:04;;;;;;;;;8.00;8.00;;;;;17.55;45.38;101211.75;5094987;27;45346;-70
2023/04/10 10:52:51;;;;;;;;;7.75;6.50;;;;;17.63;45.64;101209.41;5074588;27;46295;-76
2023/04/10 10:55:23;;;;;;;;;7.75;7.75;;;;;17.84;45.57;101204.38;5074324;28;45344;-73
2023/04/10 10:57:51;;;;;;;;;8.00;6.50;;;;;17.95;46.05;101204.50;5074529;28;45365;-74
2023/04/10 11:00:16;;;;;;;;;7.75;7.00;;;;;18.06;44.02;101201.91;5074318;27;45437;-75
2023/04/10 11:02:42;;;;;;;;;6.75;6.75;;;;;18.16;43.99;101196.72;5074311;28;45333;-76
2023/04/10 11:05:07;;;;;;;;;6.50;6.50;;;;;18.24;42.71;101178.03;5074571;28;45371;-79
2023/04/10 11:07:58;;;;;;;;;6.75;5.00;;;;;18.44;42.11;101198.34;5065417;27;45412;-78
2023/04/10 11:11:04;;;;;;;;;6.00;6.00;;;;;18.45;41.75;101200.97;5074886;28;45655;-79
2023/04/10 11:13:41;;;;;;;;;5.00;5.00;;;;;18.35;39.57;101196.28;5074873;27;47230;-75
2023/04/10 11:16:11;;;;;;;;;4.00;4.00;;;;;18.39;40.17;101200.50;5081291;27;45410;-77
2023/04/10 11:18:45;;;;;;;;;4.25;4.25;;;;;18.32;39.40;101189.22;5074644;28;45240;-80
2023/04/10 11:21:12;;;;;;;;;4.00;4.00;;;;;18.35;38.97;101188.16;5074076;28;45338;-81
2023/04/10 11:23:58;;;;;;;;;3.50;3.50;;;;;18.29;39.05;101180.44;5074651;27;47770;-77
2023/04/10 11:26:34;;;;;;;;;3.00;2.00;;;;;18.12;40.48;101168.03;5074628;27;45383;-76
2023/04/10 11:29:00;;;;;;;;;6.00;4.50;;;;;18.06;41.31;101142.22;5079601;28;45430;-75
2023/04/10 11:31:26;;;;;;;;;6.75;6.50;;;;;18.17;41.33;101152.31;5092658;27;45509;-75
2023/04/10 11:34:01;;;;;;;;;5.75;5.75;;;;;18.10;41.37;101159.16;5079170;28;46190;-76
2023/04/10 11:36:27;;;;;;;;;5.50;5.25;;;;;17.94;40.65;101153.97;5085088;27;45533;-77
2023/04/10 11:39:07;;;;;;;;;5.00;5.00;;;;;17.87;40.54;101136.34;5098387;27;45692;-77
2023/04/10 11:41:37;;;;;;;;;4.00;3.75;;;;;17.74;39.52;101113.78;5098830;27;45542;-74
2023/04/10 11:44:09;;;;;;;;;4.00;4.00;;;;;17.76;39.39;101117.25;5098686;27;46538;-78
2023/04/10 11:46:41;;;;;;;;;3.00;3.00;;;;;17.76;39.64;101115.44;5098568;27;45468;-78
2023/04/10 11:49:08;;;;;;;;;3.00;3.00;;;;;17.61;39.65;101116.44;5098026;27;45446;-78
2023/04/10 11:51:34;;;;;;;;;4.50;4.50;;;;;17.66;40.08;101121.59;5099064;27;45800;-80
2023/04/10 11:54:07;;;;;;;;;4.00;4.00;;;;;17.74;40.60;101120.06;5078432;27;45277;-79
2023/04/10 11:56:33;;;;;;;;;4.25;4.25;;;;;17.72;39.66;101123.88;5077016;27;45354;-77
2023/04/10 11:58:58;;;;;;;;;5.50;4.00;;;;;17.64;39.65;101105.41;5066254;27;45336;-78
2023/04/10 12:01:24;;;;;;;;;5.00;5.00;;;;;17.72;39.81;101115.72;5079184;27;46818;-75
2023/04/10 12:03:49;;;;;;;;;6.00;6.00;;;;;17.76;39.30;101106.41;5098530;27;45447;-72
2023/04/10 12:06:15;;;;;;;;;4.00;4.00;;;;;17.70;39.78;101101.41;5079757;27;45529;-74
2023/04/10 12:08:50;;;;;;;;;3.75;3.75;;;;;17.40;40.21;101077.25;5098280;27;45524;-79
2023/04/10 12:11:23;;;;;;;;;3.00;3.00;;;;;17.63;40.47;101116.38;5076787;27;46115;-80
2023/04/10 12:13:53;;;;;;;;;3.25;3.25;;;;;17.64;40.59;101124.41;5096240;27;45577;-81
2023/04/10 12:16:20;;;;;;;;;4.25;4.00;;;;;17.58;40.50;101108.53;5074590;27;45410;-79
2023/04/10 12:18:46;;;;;;;;;5.50;5.50;;;;;17.37;40.72;101085.59;5095918;27;45511;-80
2023/04/10 12:21:12;;;;;;;;;8.75;6.00;;;;;17.59;41.06;101125.66;5093939;27;45519;-80
2023/04/10 12:23:38;;;;;;;;;5.50;5.00;;;;;17.53;41.44;101126.06;5097586;27;45346;-81
2023/04/10 12:26:10;;;;;;;;;5.75;5.75;;;;;17.47;41.94;101113.81;5083072;27;45299;-80
2023/04/10 12:28:37;;;;;;;;;4.25;4.25;;;;;17.57;41.92;101128.47;5075875;27;45311;-80
2023/04/10 12:31:03;;;;;;;;;4.00;4.00;;;;;17.42;41.71;101099.72;5060119;28;46746;-79
2023/04/10 12:33:28;;;;;;;;;3.25;2.25;;;;;17.31;42.36;101077.91;5082015;28;45827;-82
2023/04/10 12:35:53;;;;;;;;;5.75;4.75;;;;;17.51;42.57;101112.66;5084901;27;45247;-80
2023/04/10 12:38:42;;;;;;;;;5.00;5.00;;;;;17.57;42.49;101122.19;5072827;27;45385;-81
2023/04/10 12:41:10;;;;;;;;;4.00;4.00;;;;;17.45;42.40;101083.22;5100182;27;45421;-81
2023/04/10 12:43:39;;;;;;;;;3.25;3.25;;;;;17.54;42.19;101103.41;5099704;27;46568;-79
2023/04/10 12:46:06;;;;;;;;;5.50;5.50;;;;;17.60;42.57;101122.00;5098921;27;45418;-80
2023/04/10 12:48:32;;;;;;;;;5.75;5.75;;;;;17.66;42.62;101121.59;5097365;27;45539;-76
2023/04/10 12:50:57;;;;;;;;;4.75;4.75;;;;;17.52;42.89;101086.41;5078298;27;45351;-85
2023/04/10 12:53:24;;;;;;;;;4.00;3.00;;;;;17.53;42.75;101077.28;5057087;27;47272;-77
2023/04/10 12:56:00;;;;;;;;;3.75;3.75;;;;;17.71;43.08;101098.59;5096677;27;45367;-76
2023/04/10 12:58:27;;;;;;;;;4.00;4.00;;;;;17.67;43.46;101088.06;5080610;27;45269;-76
2023/04/10 13:01:02;;;;;;;;;4.75;3.75;;;;;17.71;43.31;101066.03;5095362;27;45345;-79
2023/04/10 13:03:27;;;;;;;;;5.75;4.00;;;;;17.98;43.32;101078.63;5096252;27;45333;-74
2023/04/10 13:05:53;;;;;;;;;5.00;5.00;;;;;17.77;43.77;101059.34;5096810;27;45389;-77
2023/04/10 13:08:19;;;;;;;;;3.00;3.00;;;;;17.90;44.00;101086.44;5078494;27;45344;-81
2023/04/10 13:10:45;;;;;;;;;5.50;4.25;;;;;17.88;44.84;101051.28;5089810;27;45447;-81
2023/04/10 13:13:11;;;;;;;;;2.25;2.25;;;;;17.83;44.69;101012.78;5096535;27;45690;-81
2023/04/10 13:15:37;;;;;;;;;4.00;4.00;;;;;18.12;44.67;101038.66;5078631;27;45576;-78
2023/04/10 13:18:05;;;;;;;;;6.00;6.00;;;;;18.15;44.72;101057.44;5077706;27;45615;-78
2023/04/10 13:20:32;;;;;;;;;2.50;2.50;;;;;18.11;44.72;101039.66;5080097;27;45581;-77
2023/04/10 13:22:57;;;;;;;;;3.75;3.75;;;;;17.93;44.70;100996.72;5078328;27;45467;-78
2023/04/10 13:25:23;;;;;;;;;3.00;3.00;;;;;18.15;44.70;101041.16;5075763;28;45270;-78
2023/04/10 13:27:48;;;;;;;;;3.25;3.25;;;;;18.18;45.34;101036.50;5075863;27;45747;-77
2023/04/10 13:30:14;;;;;;;;;3.75;3.75;;;;;18.09;45.34;101011.78;5068652;27;46034;-76
2023/04/10 13:32:39;;;;;;;;;3.00;3.00;;;;;18.27;45.91;101033.13;5093250;27;45510;-77
2023/04/10 13:35:05;;;;;;;;;8.00;5.00;;;;;18.26;46.43;101017.81;5078156;27;45470;-76
2023/04/10 13:37:30;;;;;;;;;2.00;2.00;;;;;18.46;46.63;101036.19;5078886;27;45344;-77
2023/04/10 13:39:56;;;;;;;;;3.50;3.50;;;;;18.33;46.37;101025.38;5086174;27;45567;-77
2023/04/10 13:42:21;;;;;;;;;2.00;2.00;;;;;18.25;47.62;101016.94;5082592;27;46507;-79
2023/04/10 13:44:47;;;;;;;;;2.00;2.00;;;;;18.45;47.50;101031.78;5068448;28;45452;-76
2023/04/10 13:47:13;;;;;;;;;2.25;2.25;;;;;18.43;48.14;101004.72;5092134;27;45426;-77
2023/04/10 13:49:38;;;;;;;;;1.75;1.75;;;;;18.57;48.44;101039.03;5094159;27;45424;-74
2023/04/10 13:52:04;;;;;;;;;2.25;1.25;;;;;18.45;49.00;101016.34;5089041;27;46274;-78
2023/04/10 13:54:29;;;;;;;;;2.00;2.00;;;;;18.59;49.18;101034.34;5088298;27;45373;-77
2023/04/10 13:56:55;;;;;;;;;2.00;2.00;;;;;18.58;49.49;101035.31;5090723;27;45840;-77
2023/04/10 13:59:20;;;;;;;;;2.50;2.50;;;;;18.58;49.64;101043.47;5085736;27;45398;-75
2023/04/10 14:01:46;;;;;;;;;1.00;1.00;;;;;18.43;50.56;101031.88;5073107;27;47121;-74
2023/04/10 14:04:11;;;;;;;;;3.25;3.25;;;;;18.48;50.53;101034.22;5094575;27;45454;-73
2023/04/10 14:06:37;;;;;;;;;2.50;2.00;;;;;18.46;50.81;101034.34;5091099;27;45493;-75
2023/04/10 14:09:03;;;;;;;;;3.00;3.00;;;;;18.26;51.70;101020.53;5090684;27;45360;-76
2023/04/10 14:11:28;;;;;;;;;2.50;2.50;;;;;18.29;52.43;101051.00;5076112;27;46666;-80
2023/04/10 14:13:53;;;;;;;;;3.00;3.00;;;;;18.13;53.42;101043.13;5097143;27;45352;-77
2023/04/10 14:16:19;;;;;;;;;2.75;2.75;;;;;18.03;53.94;101038.50;5071646;27;45539;-83
2023/04/10 14:18:44;;;;;;;;;2.00;2.00;;;;;18.06;54.65;101044.53;5086069;27;45447;-77
2023/04/10 14:21:10;;;;;;;;;1.50;1.50;;;;;17.90;55.04;101034.91;5095808;27;45362;-79
2023/04/10 14:23:35;;;;;;;;;3.75;3.75;;;;;17.67;55.44;101009.44;5095428;27;45436;-80
2023/04/10 14:26:01;;;;;;;;;2.75;2.75;;;;;17.66;55.24;101023.97;5094567;27;45275;-83
2023/04/10 14:28:26;;;;;;;;;1.00;1.00;;;;;17.83;55.79;101049.88;5076439;27;45520;-77
2023/04/10 14:30:51;;;;;;;;;3.00;3.00;;;;;17.68;58.54;101078.97;5092254;27;45809;-79
2023/04/10 14:33:17;;;;;;;;;4.00;4.00;;;;;17.44;59.66;101061.69;5075415;28;45404;-77
2023/04/10 14:35:44;;;;;;;;;4.00;4.00;;;;;17.49;60.45;101070.34;5074685;27;45516;-79
2023/04/10 14:38:10;;;;;;;;;4.00;4.00;;;;;17.39;61.43;101045.72;5074990;28;45474;-77
2023/04/10 14:40:36;;;;;;;;;2.00;2.00;;;;;17.33;60.89;101044.31;5086300;27;45281;-78
2023/04/10 14:43:01;;;;;;;;;4.25;2.50;;;;;17.19;61.32;101014.56;5093766;27;45314;-79
2023/04/10 14:45:27;;;;;;;;;2.75;2.75;;;;;17.15;61.70;101031.16;5096266;27;45468;-80
2023/04/10 14:47:53;;;;;;;;;3.25;3.25;;;;;17.28;62.47;101051.88;5096896;27;45252;-77
2023/04/10 14:50:18;;;;;;;;;3.50;3.00;;;;;16.96;63.56;101010.72;5100352;27;46390;-76
2023/04/10 14:52:44;;;;;;;;;4.25;4.25;;;;;17.17;64.38;101048.19;5074073;27;45740;-76
2023/04/10 14:55:10;;;;;;;;;4.25;4.25;;;;;17.18;64.13;101049.91;5095403;27;45723;-78
2023/04/10 14:57:35;;;;;;;;;6.00;5.00;;;;;17.02;64.98;101034.69;5095039;27;45373;-75
2023/04/10 15:00:02;;;;;;;;;6.00;5.00;;;;;17.16;65.34;101051.84;5095063;27;45361;-76
2023/04/10 15:02:29;;;;;;;;;2.00;2.00;;;;;16.94;65.40;101030.75;5096380;27;45618;-76
2023/04/10 15:04:54;;;;;;;;;4.00;4.00;;;;;16.74;67.19;101015.88;5098998;27;45357;-77
2023/04/10 15:07:20;;;;;;;;;3.50;3.50;;;;;17.03;67.10;101049.09;5100666;27;45471;-76
2023/04/10 15:09:45;;;;;;;;;3.75;3.75;;;;;16.99;67.68;101043.03;5097811;27;46308;-76
2023/04/10 15:12:10;;;;;;;;;5.75;4.00;;;;;16.89;67.97;101019.38;5098276;27;48967;-77
2023/04/10 15:14:36;;;;;;;;;4.50;4.50;;;;;16.81;69.31;101030.75;5098382;27;45313;-77
2023/04/10 15:17:01;;;;;;;;;5.00;5.00;;;;;16.81;69.71;101016.31;5098408;27;45231;-77
2023/04/10 15:19:26;;;;;;;;;4.25;4.25;;;;;16.92;69.23;101024.59;5098189;27;45448;-77
2023/04/10 15:21:53;;;;;;;;;4.00;4.00;;;;;16.75;70.06;101004.09;5098347;27;45443;-76
2023/04/10 15:24:18;;;;;;;;;4.00;4.00;;;;;16.69;70.27;101003.59;5079216;27;45341;-77
2023/04/10 15:26:44;;;;;;;;;4.25;4.25;;;;;16.67;71.09;101019.09;5098101;27;45309;-76
2023/04/10 15:29:11;;;;;;;;;4.50;4.00;;;;;16.51;71.17;100986.72;5085430;27;46710;-77
2023/04/10 15:31:36;;;;;;;;;4.00;4.00;;;;;16.56;70.27;100990.00;5090704;27;45487;-77
2023/04/10 15:34:01;;;;;;;;;4.00;4.00;;;;;16.71;70.52;101001.66;5073316;27;45336;-77
2023/04/10 15:36:27;;;;;;;;;3.50;3.50;;;;;16.50;70.04;100947.13;5098049;27;45455;-76
2023/04/10 15:38:52;;;;;;;;;5.00;5.00;;;;;16.64;70.67;100971.44;5097616;27;45283;-76
2023/04/10 15:41:18;;;;;;;;;3.00;3.00;;;;;16.43;71.47;100951.19;5098010;27;45415;-77
2023/04/10 15:43:43;;;;;;;;;5.25;3.75;;;;;16.53;71.00;100964.00;5098236;27;45376;-78
2023/04/10 15:46:09;;;;;;;;;3.50;3.50;;;;;16.50;71.52;100966.06;5098137;27;45314;-77
2023/04/10 15:48:34;;;;;;;;;6.50;3.75;;;;;16.55;71.49;100959.34;5098015;27;45990;-77
2023/04/10 15:51:04;;;;;;;;;4.00;3.00;;;;;16.64;71.75;100976.84;5090523;27;45379;-78